Souda — SVBH5 — position and weather

sailwx.info

Track history (hours):
 
Tides and Currents Weather Stations Pressure Air Temp Water Temp Dewpoint Dewpoint Depression Visibility Wind Speed Wind Dir Waves Ship Positions

Souda

Last reported at 2015-Sep-02 02:22 UTC. Time now 2015-Sep-02 06:26 UTC.
Position N 37°55' E 023°06'.

Length 88 m; draft 5 m.

Type: Tanker. MMSI: 241109000.

Date/timePositionNaut miles runAvg speedWind from/ knotsBaromVisibWave heightAir tempDewpointWater temp
2015-Sep-02 02:22N 37°55' E 023°06'0 0.0
2015-Sep-02 01:04N 37°55' E 023°06'0 0.0
2015-Sep-01 23:07N 37°55' E 023°06'0 0.0
2015-Sep-01 16:28N 37°55' E 023°06'0 0.0
2015-Sep-01 14:25N 37°55' E 023°06'0 0.0
2015-Sep-01 12:22N 37°55' E 023°07'0 0.0
2015-Sep-01 03:11N 37°55' E 023°07'0 0.0
2015-Sep-01 02:23N 37°55' E 023°07'3 3.5
2015-Sep-01 01:33N 37°53' E 023°10'9 9.0
2015-Sep-01 00:34N 37°51' E 023°21'9 9.1
2015-Aug-31 23:33N 37°50' E 023°32'7 7.4
2015-Aug-31 22:33N 37°47' E 023°41'9 9.1
2015-Aug-31 21:33N 37°39' E 023°46'10 9.5
2015-Aug-31 20:33N 37°30' E 023°48'13 9.2
2015-Aug-31 19:07N 37°17' E 023°51'86 8.9
2015-Aug-31 09:27N 35°52' E 024°10'96 2.1
2015-Aug-29 12:31N 37°27' E 023°46'9 9.0
2015-Aug-29 11:33N 37°35' E 023°44'9 9.5
2015-Aug-29 10:34N 37°44' E 023°40'8 8.0
2015-Aug-29 09:34N 37°50' E 023°32'9 8.8
2015-Aug-29 08:34N 37°51' E 023°22'9 9.1
2015-Aug-29 07:34N 37°54' E 023°10'4 0.2
2015-Aug-28 14:20N 37°55' E 023°05'3 4.2
2015-Aug-28 13:33N 37°53' E 023°09'9 9.3
2015-Aug-28 12:33N 37°51' E 023°21'9 9.4
2015-Aug-28 11:33N 37°50' E 023°32'7 7.3
2015-Aug-28 10:33N 37°48' E 023°41'9 9.2
2015-Aug-28 09:33N 37°39' E 023°46'  
2015-Aug-25 11:29N 37°32' E 023°45'9 9.0
2015-Aug-25 10:33N 37°40' E 023°42'9 9.0
2015-Aug-25 09:33N 37°48' E 023°38'8 8.3
2015-Aug-25 08:33N 37°50' E 023°27'9 9.0
2015-Aug-25 07:33N 37°53' E 023°16'9 0.5
2015-Aug-24 13:31N 37°55' E 023°05'1 0.1
2015-Aug-23 23:32N 37°55' E 023°06'5 4.7
2015-Aug-23 22:33N 37°53' E 023°12'10 9.7
2015-Aug-23 21:34N 37°51' E 023°24'10 9.7
2015-Aug-23 20:33N 37°51' E 023°36'9 9.0
2015-Aug-23 19:33N 37°44' E 023°43'10 9.5
2015-Aug-23 18:33N 37°35' E 023°47'  
Track history (hours):
 
Tides and Currents Weather Stations Pressure Air Temp Water Temp Dewpoint Dewpoint Depression Visibility Wind Speed Wind Dir Waves Ship Positions

Souda

Last reported at 2015-Sep-02 02:22 UTC. Time now 2015-Sep-02 06:26 UTC.
Position N 37°55' E 023°06'.

Length 88 m; draft 5 m.

Type: Tanker. MMSI: 241109000.

Date/timePositionNaut miles runAvg speedWind from/ knotsBaromVisibWave heightAir tempDewpointWater temp
2015-Sep-02 02:22N 37°55' E 023°06'0 0.0
2015-Sep-02 01:04N 37°55' E 023°06'0 0.0
2015-Sep-01 23:07N 37°55' E 023°06'0 0.0
2015-Sep-01 16:28N 37°55' E 023°06'0 0.0
2015-Sep-01 14:25N 37°55' E 023°06'0 0.0
2015-Sep-01 12:22N 37°55' E 023°07'0 0.0
2015-Sep-01 03:11N 37°55' E 023°07'0 0.0
2015-Sep-01 02:23N 37°55' E 023°07'3 3.5
2015-Sep-01 01:33N 37°53' E 023°10'9 9.0
2015-Sep-01 00:34N 37°51' E 023°21'9 9.1
2015-Aug-31 23:33N 37°50' E 023°32'7 7.4
2015-Aug-31 22:33N 37°47' E 023°41'9 9.1
2015-Aug-31 21:33N 37°39' E 023°46'10 9.5
2015-Aug-31 20:33N 37°30' E 023°48'13 9.2
2015-Aug-31 19:07N 37°17' E 023°51'86 8.9
2015-Aug-31 09:27N 35°52' E 024°10'96 2.1
2015-Aug-29 12:31N 37°27' E 023°46'9 9.0
2015-Aug-29 11:33N 37°35' E 023°44'9 9.5
2015-Aug-29 10:34N 37°44' E 023°40'8 8.0
2015-Aug-29 09:34N 37°50' E 023°32'9 8.8
2015-Aug-29 08:34N 37°51' E 023°22'9 9.1
2015-Aug-29 07:34N 37°54' E 023°10'4 0.2
2015-Aug-28 14:20N 37°55' E 023°05'3 4.2
2015-Aug-28 13:33N 37°53' E 023°09'9 9.3
2015-Aug-28 12:33N 37°51' E 023°21'9 9.4
2015-Aug-28 11:33N 37°50' E 023°32'7 7.3
2015-Aug-28 10:33N 37°48' E 023°41'9 9.2
2015-Aug-28 09:33N 37°39' E 023°46'  
2015-Aug-25 11:29N 37°32' E 023°45'9 9.0
2015-Aug-25 10:33N 37°40' E 023°42'9 9.0
2015-Aug-25 09:33N 37°48' E 023°38'8 8.3
2015-Aug-25 08:33N 37°50' E 023°27'9 9.0
2015-Aug-25 07:33N 37°53' E 023°16'9 0.5
2015-Aug-24 13:31N 37°55' E 023°05'1 0.1
2015-Aug-23 23:32N 37°55' E 023°06'5 4.7
2015-Aug-23 22:33N 37°53' E 023°12'10 9.7
2015-Aug-23 21:34N 37°51' E 023°24'10 9.7
2015-Aug-23 20:33N 37°51' E 023°36'9 9.0
2015-Aug-23 19:33N 37°44' E 023°43'10 9.5
2015-Aug-23 18:33N 37°35' E 023°47'  

Dump ship's entire track history